Time;durP1;ratioP1;P1;durP2;ratioP2;P2;SDS_P1;SDS_P2;PMS_P1;PMS_P2;Temp;Humidity;BMP_temperature;BMP_pressure;BME280_temperature;BME280_humidity;BME280_pressure;Samples;Min_cycle;Max_cycle;Signal;HPM_P1;HPM_P2
2023/07/07 00:00:14;;;;;;;;;11.00;11.00;;;;;18.89;100.00;99761.03;6319002;20;2796199;-49
2023/07/07 00:02:43;;;;;;;;;11.67;10.33;;;;;18.95;100.00;99768.59;6318029;20;2789901;-50
2023/07/07 00:05:11;;;;;;;;;10.67;10.67;;;;;19.12;100.00;99768.88;6313895;20;3517025;-49
2023/07/07 00:07:39;;;;;;;;;10.33;8.33;;;;;19.05;100.00;99771.31;6317694;20;2763818;-50
2023/07/07 00:10:07;;;;;;;;;10.33;9.33;;;;;19.06;100.00;99773.91;6321325;20;2767974;-55
2023/07/07 00:12:38;;;;;;;;;7.20;7.20;;;;;19.10;100.00;99779.03;6340453;20;2748208;-52
2023/07/07 00:15:07;;;;;;;;;10.60;10.60;;;;;19.16;100.00;99778.44;6336190;20;2789906;-49
2023/07/07 00:17:36;;;;;;;;;9.00;9.00;;;;;19.23;99.18;99779.56;6290263;20;2740893;-49
2023/07/07 00:20:08;;;;;;;;;10.00;10.00;;;;;19.10;99.60;99779.03;6314753;20;2771183;-52
2023/07/07 00:22:36;;;;;;;;;10.00;7.33;;;;;18.85;100.00;99770.47;6319010;20;2771131;-53
2023/07/07 00:25:06;;;;;;;;;10.00;10.00;;;;;19.16;100.00;99778.44;6313480;20;2778470;-48
2023/07/07 00:27:34;;;;;;;;;9.67;9.00;;;;;19.05;99.92;99777.59;6316126;20;2770116;-49
2023/07/07 00:30:03;;;;;;;;;11.67;9.67;;;;;19.02;100.00;99774.31;6309851;20;3503453;-50
2023/07/07 00:32:32;;;;;;;;;12.00;10.60;;;;;18.87;100.00;99773.91;6338487;20;2792143;-53
2023/07/07 00:35:00;;;;;;;;;9.67;9.67;;;;;18.94;100.00;99780.50;6282495;20;2775261;-52
2023/07/07 00:37:28;;;;;;;;;8.33;8.33;;;;;18.89;100.00;99777.34;6310744;20;2735700;-51
2023/07/07 00:39:56;;;;;;;;;9.67;9.33;;;;;18.94;100.00;99782.38;6312333;20;2771531;-51
2023/07/07 00:42:24;;;;;;;;;10.00;9.00;;;;;18.81;100.00;99791.69;6311612;20;2771268;-50
2023/07/07 00:45:19;;;;;;;;;10.20;8.80;;;;;18.91;100.00;99788.97;6337312;20;2765939;-51
2023/07/07 00:47:58;;;;;;;;;9.67;9.67;;;;;18.72;100.00;99783.47;6279157;20;3495045;-50
2023/07/07 00:50:36;;;;;;;;;10.33;9.67;;;;;18.80;100.00;99779.09;6312383;20;3491962;-50
2023/07/07 00:53:05;;;;;;;;;8.20;8.20;;;;;18.94;100.00;99777.78;6337836;20;2748329;-50
2023/07/07 00:55:38;;;;;;;;;9.50;9.50;;;;;18.81;100.00;99777.22;6284920;20;2767063;-53
2023/07/07 00:58:12;;;;;;;;;8.67;8.67;;;;;19.00;100.00;99779.91;6284333;20;2742959;-49
2023/07/07 01:00:47;;;;;;;;;11.00;10.00;;;;;18.89;100.00;99780.06;6305904;20;2786761;-51
2023/07/07 01:03:25;;;;;;;;;11.00;10.00;;;;;18.76;100.00;99787.69;6310696;20;2786824;-52
2023/07/07 01:05:56;;;;;;;;;10.67;10.67;;;;;18.61;100.00;99779.91;6309559;20;3515965;-50
2023/07/07 01:08:25;;;;;;;;;11.00;11.00;;;;;18.73;100.00;99787.94;6314454;20;2791062;-52
2023/07/07 01:10:53;;;;;;;;;10.00;10.00;;;;;18.60;100.00;99789.06;6307417;20;3505610;-53
2023/07/07 01:13:23;;;;;;;;;9.20;9.20;;;;;18.54;100.00;99789.66;6337488;20;2752361;-53
2023/07/07 01:16:07;;;;;;;;;11.00;9.50;;;;;18.60;100.00;99785.50;6284128;20;2779647;-51
2023/07/07 01:19:33;;;;;;;;;9.50;9.50;;;;;18.62;100.00;99787.09;6285605;20;2775314;-51
2023/07/07 01:22:34;;;;;;;;;12.00;11.33;;;;;18.44;100.00;99786.06;6278220;20;3522242;-50
2023/07/07 01:25:37;;;;;;;;;9.67;9.67;;;;;18.73;100.00;99793.38;6280212;20;2763872;-50
2023/07/07 01:28:55;;;;;;;;;10.00;10.00;;;;;18.83;100.00;99792.41;6311373;20;2789900;-50
2023/07/07 01:31:32;;;;;;;;;10.33;8.33;;;;;18.38;100.00;99786.66;6302249;20;3479512;-49
2023/07/07 01:34:02;;;;;;;;;9.67;9.00;;;;;18.51;100.00;99794.50;6310651;20;2758589;-53
2023/07/07 01:36:30;;;;;;;;;8.67;7.67;;;;;18.60;100.00;99799.97;6303751;20;2747203;-50
2023/07/07 01:38:57;;;;;;;;;9.00;9.00;;;;;18.65;100.00;99803.09;6315092;20;2760793;-50
2023/07/07 01:41:38;;;;;;;;;9.00;7.80;;;;;18.80;100.00;99798.13;6308394;20;2749315;-51
2023/07/07 01:44:43;;;;;;;;;10.00;8.67;;;;;18.76;100.00;99806.72;6305860;20;3484633;-52
2023/07/07 01:47:19;;;;;;;;;10.00;10.00;;;;;18.62;100.00;99797.97;6302077;20;3499289;-52
2023/07/07 01:50:17;;;;;;;;;11.75;9.75;;;;;18.47;100.00;99798.53;6330241;20;2806565;-53
2023/07/07 01:52:52;;;;;;;;;10.00;9.00;;;;;18.71;100.00;99806.25;6303410;20;2761814;-53
2023/07/07 01:55:31;;;;;;;;;9.00;8.00;;;;;18.74;99.39;99800.53;6328607;20;2752489;-49
2023/07/07 01:58:03;;;;;;;;;12.33;11.33;;;;;18.69;100.00;99797.38;6267614;20;3509632;-48
2023/07/07 02:00:32;;;;;;;;;8.00;8.00;;;;;18.66;100.00;99795.81;6313616;20;2750335;-50
2023/07/07 02:03:01;;;;;;;;;10.67;9.33;;;;;18.60;100.00;99789.06;6279526;20;2781623;-50
2023/07/07 02:05:29;;;;;;;;;10.33;10.33;;;;;18.30;100.00;99792.81;6302508;20;2784713;-51
2023/07/07 02:07:59;;;;;;;;;11.67;11.67;;;;;18.18;100.00;99788.47;6306536;20;3514835;-51
2023/07/07 02:10:27;;;;;;;;;9.33;9.33;;;;;18.19;100.00;99791.06;6307986;20;3482574;-49
2023/07/07 02:12:55;;;;;;;;;10.67;10.00;;;;;18.25;100.00;99789.66;6306847;20;2780691;-49
2023/07/07 02:15:24;;;;;;;;;12.67;11.33;;;;;17.99;100.00;99792.03;6306991;20;3513853;-52
2023/07/07 02:17:52;;;;;;;;;10.67;10.33;;;;;17.96;100.00;99793.16;6305342;20;3515884;-49
2023/07/07 02:20:20;;;;;;;;;13.00;12.00;;;;;17.93;100.00;99795.28;6307438;20;3513781;-51
2023/07/07 02:22:47;;;;;;;;;9.00;9.00;;;;;18.13;100.00;99796.19;6284513;20;2760720;-47
2023/07/07 02:25:15;;;;;;;;;11.00;9.50;;;;;18.29;100.00;99792.94;6284021;20;2783774;-50
2023/07/07 02:27:43;;;;;;;;;12.00;12.00;;;;;18.49;100.00;99797.38;6277810;20;3526293;-49
2023/07/07 02:30:11;;;;;;;;;11.50;9.50;;;;;18.48;100.00;99800.22;6312116;20;2778514;-51
2023/07/07 02:32:39;;;;;;;;;12.00;8.67;;;;;18.42;100.00;99798.94;6277265;20;2769072;-47
2023/07/07 02:35:08;;;;;;;;;9.67;9.67;;;;;18.56;100.00;99801.25;6309082;20;2773270;-50
2023/07/07 02:37:35;;;;;;;;;10.00;10.00;;;;;18.26;100.00;99801.38;6308961;20;2780506;-52
2023/07/07 02:40:05;;;;;;;;;11.33;10.00;;;;;18.25;100.00;99799.66;6276526;20;3509671;-52
2023/07/07 02:42:34;;;;;;;;;9.20;9.20;;;;;18.32;100.00;99806.22;6329657;20;2756583;-53
2023/07/07 02:45:03;;;;;;;;;9.67;9.67;;;;;18.45;100.00;99806.81;6280122;20;2778423;-54
2023/07/07 02:47:30;;;;;;;;;11.00;9.00;;;;;18.40;99.38;99806.38;6308215;20;2778622;-49
2023/07/07 02:49:59;;;;;;;;;10.40;10.40;;;;;18.50;98.42;99803.69;6300314;20;2771325;-47
2023/07/07 02:52:28;;;;;;;;;10.33;8.33;;;;;18.44;97.49;99805.09;6275428;20;2755916;-48
2023/07/07 02:54:56;;;;;;;;;14.67;11.00;;;;;18.38;98.19;99800.25;6303997;20;3518037;-53
2023/07/07 02:57:24;;;;;;;;;9.67;9.67;;;;;18.29;97.87;99812.81;6302211;20;3495094;-50
2023/07/07 02:59:52;;;;;;;;;11.00;9.67;;;;;18.45;97.39;99811.41;6302850;20;3498246;-50
2023/07/07 03:02:19;;;;;;;;;12.00;11.00;;;;;18.47;95.89;99814.84;6311185;20;2782765;-52
2023/07/07 03:04:48;;;;;;;;;10.33;10.00;;;;;18.35;96.86;99823.13;6278368;20;2784716;-53
2023/07/07 03:07:16;;;;;;;;;10.33;10.33;;;;;18.23;98.33;99817.97;6304319;20;3510702;-50
2023/07/07 03:09:44;;;;;;;;;12.00;8.67;;;;;18.42;97.90;99817.97;6315806;20;2763843;-53
2023/07/07 03:12:11;;;;;;;;;9.50;9.50;;;;;18.19;98.43;99822.81;6313490;20;2765887;-49
2023/07/07 03:14:40;;;;;;;;;11.67;9.67;;;;;18.28;99.03;99818.41;6281968;20;2782774;-47
2023/07/07 03:17:08;;;;;;;;;8.00;8.00;;;;;18.35;98.47;99816.81;6306364;20;2748633;-48
2023/07/07 03:19:37;;;;;;;;;10.67;8.67;;;;;18.41;97.68;99817.13;6313747;20;2775400;-48
2023/07/07 03:22:05;;;;;;;;;10.67;10.67;;;;;18.39;98.00;99823.69;6307864;20;3518158;-50
2023/07/07 03:24:34;;;;;;;;;11.20;10.00;;;;;18.28;98.32;99829.28;6333309;20;2790338;-48
2023/07/07 03:27:02;;;;;;;;;6.67;6.67;;;;;18.40;100.00;99830.84;6283994;20;2733725;-52
2023/07/07 03:29:30;;;;;;;;;11.50;10.00;;;;;18.06;100.00;99831.25;6319892;20;2786799;-49
2023/07/07 03:31:58;;;;;;;;;9.33;9.00;;;;;18.17;100.00;99836.53;6283574;20;2760702;-48
2023/07/07 03:34:27;;;;;;;;;12.00;10.40;;;;;18.21;100.00;99831.69;6339798;20;2794026;-50
2023/07/07 03:36:55;;;;;;;;;9.00;9.00;;;;;18.53;99.89;99839.59;6280167;20;2762823;-48
2023/07/07 03:39:23;;;;;;;;;10.33;10.33;;;;;18.39;99.17;99835.44;6311364;20;2781635;-53
2023/07/07 03:41:51;;;;;;;;;11.67;10.00;;;;;18.29;100.00;99836.41;6309709;20;3509656;-48
2023/07/07 03:44:23;;;;;;;;;9.00;9.00;;;;;18.52;98.30;99843.31;6310852;20;2743512;-48
2023/07/07 03:46:52;;;;;;;;;11.20;10.00;;;;;18.36;98.87;99834.88;6335268;20;2783762;-54
2023/07/07 03:49:20;;;;;;;;;11.00;9.67;;;;;18.58;96.64;99840.03;6281724;20;2782556;-51
2023/07/07 03:51:48;;;;;;;;;11.00;11.00;;;;;18.52;96.53;99840.59;6309839;20;3512882;-49
2023/07/07 03:54:16;;;;;;;;;9.33;9.33;;;;;18.40;98.59;99839.88;6313271;20;2768111;-50
2023/07/07 03:56:44;;;;;;;;;9.33;9.33;;;;;18.51;99.15;99841.63;6312020;20;2777428;-52
2023/07/07 03:59:13;;;;;;;;;9.33;9.33;;;;;18.51;100.00;99841.63;6310157;20;3474236;-51
2023/07/07 04:01:41;;;;;;;;;10.67;9.00;;;;;18.50;100.00;99839.03;6311283;20;3478368;-51
2023/07/07 04:04:08;;;;;;;;;10.50;10.50;;;;;18.45;100.00;99842.16;6312277;20;2792006;-48
2023/07/07 04:06:37;;;;;;;;;10.33;10.33;;;;;18.33;100.00;99840.59;6278993;20;3518045;-53
2023/07/07 04:09:05;;;;;;;;;14.00;10.67;;;;;18.38;100.00;99846.47;6310658;20;3505617;-51
2023/07/07 04:11:32;;;;;;;;;9.00;9.00;;;;;18.55;98.93;99844.91;6319723;20;2749354;-51
2023/07/07 04:14:00;;;;;;;;;10.33;9.00;;;;;18.55;97.68;99850.34;6280431;20;2761832;-47
2023/07/07 04:16:29;;;;;;;;;11.00;11.00;;;;;18.69;96.83;99851.78;6310055;20;3502497;-51
2023/07/07 04:18:57;;;;;;;;;9.00;9.00;;;;;18.49;98.07;99854.50;6310279;20;2750347;-53
2023/07/07 04:21:29;;;;;;;;;11.00;10.00;;;;;18.64;96.79;99861.25;6314077;20;2782650;-53
2023/07/07 04:23:59;;;;;;;;;9.67;9.67;;;;;18.78;96.98;99859.13;6317201;20;2783662;-54
2023/07/07 04:26:30;;;;;;;;;10.50;9.00;;;;;18.74;96.40;99863.09;6307661;20;3375295;-52
2023/07/07 04:29:00;;;;;;;;;11.00;11.00;;;;;18.70;97.64;99861.66;6336003;20;2786761;-48
2023/07/07 04:31:30;;;;;;;;;11.00;10.67;;;;;18.81;96.83;99875.16;6285020;20;2783728;-49
2023/07/07 04:33:58;;;;;;;;;11.67;9.67;;;;;18.76;97.90;99874.72;6309533;20;2779512;-49
2023/07/07 04:36:27;;;;;;;;;10.67;9.00;;;;;18.83;97.61;99886.75;6307226;20;2771166;-49
2023/07/07 04:38:55;;;;;;;;;11.67;9.67;;;;;18.74;98.49;99887.56;6309674;20;2793070;-49
2023/07/07 04:41:26;;;;;;;;;9.33;9.00;;;;;18.90;96.27;99887.88;6310252;20;3466044;-53
2023/07/07 04:43:59;;;;;;;;;11.00;11.00;;;;;18.90;95.39;99890.59;6316698;20;2791966;-47
2023/07/07 04:46:38;;;;;;;;;12.00;10.33;;;;;18.98;95.05;99888.03;6309767;20;3515912;-50
2023/07/07 04:49:08;;;;;;;;;11.00;9.33;;;;;19.07;94.33;99889.91;6316615;20;2774271;-47
2023/07/07 04:51:41;;;;;;;;;10.00;9.00;;;;;19.08;92.85;99888.88;6319754;20;2757676;-53
2023/07/07 04:54:14;;;;;;;;;9.00;9.00;;;;;19.25;92.97;99897.34;6314339;20;2738854;-52
2023/07/07 04:56:44;;;;;;;;;8.00;8.00;;;;;19.36;91.75;99894.47;6311528;20;2744104;-50
2023/07/07 04:59:12;;;;;;;;;11.00;10.33;;;;;19.47;92.52;99902.47;6312245;20;2796134;-49
2023/07/07 05:01:40;;;;;;;;;11.33;10.00;;;;;19.46;92.92;99908.06;6312388;20;3508624;-52
2023/07/07 05:04:10;;;;;;;;;9.00;8.20;;;;;19.34;93.20;99910.06;6338705;20;2739931;-49
2023/07/07 05:06:39;;;;;;;;;10.67;9.00;;;;;19.45;93.38;99912.63;6284649;20;2778524;-50
2023/07/07 05:09:10;;;;;;;;;11.33;10.00;;;;;19.51;92.80;99914.78;6314868;20;2792166;-49
2023/07/07 05:11:38;;;;;;;;;10.00;8.67;;;;;19.55;92.77;99914.50;6310871;20;2754103;-53
2023/07/07 05:14:06;;;;;;;;;9.67;8.67;;;;;19.63;91.33;99909.16;6310224;20;2753405;-52
2023/07/07 05:16:38;;;;;;;;;9.33;9.33;;;;;19.75;90.43;99908.03;6316275;20;2771141;-50
2023/07/07 05:19:07;;;;;;;;;9.00;9.00;;;;;19.74;89.73;99914.47;6309101;20;2746207;-52
2023/07/07 05:21:35;;;;;;;;;11.00;10.33;;;;;19.82;89.46;99916.47;6318294;20;2779429;-50
2023/07/07 05:24:04;;;;;;;;;8.67;8.67;;;;;19.81;90.17;99920.19;6310931;20;2753507;-51
2023/07/07 05:26:32;;;;;;;;;11.00;11.00;;;;;19.95;88.65;99917.84;6304295;20;2786875;-55
2023/07/07 05:29:04;;;;;;;;;10.00;8.67;;;;;19.94;88.60;99928.91;6307664;20;3476318;-52
2023/07/07 05:31:33;;;;;;;;;12.00;10.00;;;;;19.91;88.92;99924.59;6313384;20;2791069;-49
2023/07/07 05:34:01;;;;;;;;;10.67;9.33;;;;;20.05;86.93;99922.41;6305460;20;3503377;-54
2023/07/07 05:36:29;;;;;;;;;10.67;8.67;;;;;20.04;86.45;99931.59;6313901;20;2772708;-54
2023/07/07 05:38:58;;;;;;;;;8.80;8.80;;;;;20.15;83.57;99928.69;6328446;20;2748359;-47
2023/07/07 05:41:28;;;;;;;;;9.60;9.60;;;;;20.47;83.17;99924.66;6297980;20;2758653;-52
2023/07/07 05:43:56;;;;;;;;;7.00;7.00;;;;;20.57;81.72;99928.22;6284931;20;2744505;-47
2023/07/07 05:46:24;;;;;;;;;9.67;7.67;;;;;21.23;80.20;99930.59;6307458;20;2765912;-50
2023/07/07 05:48:52;;;;;;;;;9.00;9.00;;;;;21.83;76.78;99931.78;6303038;20;2764996;-52
2023/07/07 05:51:21;;;;;;;;;12.33;9.33;;;;;21.86;75.26;99932.28;6306065;20;2779546;-52
2023/07/07 05:53:49;;;;;;;;;10.33;9.33;;;;;22.16;75.46;99931.94;6310859;20;2769063;-54
2023/07/07 05:56:23;;;;;;;;;8.33;7.67;;;;;22.19;73.87;99931.66;6304572;20;2750398;-52
2023/07/07 05:58:54;;;;;;;;;10.33;9.00;;;;;21.97;74.26;99936.63;6304468;20;2769122;-50
2023/07/07 06:01:23;;;;;;;;;11.00;9.00;;;;;22.13;74.74;99939.44;6316200;20;2768753;-47
2023/07/07 06:03:51;;;;;;;;;9.67;8.67;;;;;22.44;72.17;99933.47;6313984;20;2758659;-47
2023/07/07 06:06:19;;;;;;;;;10.00;8.67;;;;;22.76;70.61;99942.81;6304863;20;2769181;-52
2023/07/07 06:08:47;;;;;;;;;7.00;7.00;;;;;22.83;69.08;99946.63;6315312;20;2748325;-54
2023/07/07 06:11:15;;;;;;;;;9.00;9.00;;;;;22.90;68.39;99942.16;6314769;20;2758627;-48
2023/07/07 06:13:44;;;;;;;;;9.33;9.33;;;;;22.94;69.64;99950.91;6314150;20;2764901;-53
2023/07/07 06:16:14;;;;;;;;;10.00;10.00;;;;;23.58;66.57;99952.00;6330442;20;2779515;-54
2023/07/07 06:18:42;;;;;;;;;9.67;9.67;;;;;23.02;68.07;99955.59;6275634;20;3498172;-49
2023/07/07 06:21:10;;;;;;;;;8.67;8.00;;;;;23.31;67.89;99968.81;6306267;20;2754472;-50
2023/07/07 06:23:38;;;;;;;;;9.00;7.67;;;;;23.54;66.44;99971.72;6315451;20;2738892;-49
2023/07/07 06:26:06;;;;;;;;;9.00;9.00;;;;;23.43;68.17;99965.56;6315425;20;2743034;-51
2023/07/07 06:28:34;;;;;;;;;6.33;5.00;;;;;22.88;70.37;99966.13;6309550;20;2754507;-51
2023/07/07 06:31:02;;;;;;;;;8.00;8.00;;;;;22.92;68.83;99978.44;6318543;20;2739887;-51
2023/07/07 06:33:32;;;;;;;;;9.80;8.20;;;;;22.89;68.71;99973.31;6331341;20;2760647;-48
2023/07/07 06:36:00;;;;;;;;;8.33;7.00;;;;;22.76;71.04;99972.94;6279172;20;2745185;-52
2023/07/07 06:38:29;;;;;;;;;10.60;10.60;;;;;22.82;70.58;99972.25;6328554;20;2774365;-50
2023/07/07 06:40:57;;;;;;;;;9.33;8.00;;;;;22.85;70.61;99985.59;6282884;20;2757592;-49
2023/07/07 06:43:25;;;;;;;;;11.67;9.67;;;;;22.94;68.82;99981.03;6302023;20;3508607;-51
2023/07/07 06:45:56;;;;;;;;;8.00;8.00;;;;;22.95;67.17;99978.13;6304370;20;3453388;-49
2023/07/07 06:48:24;;;;;;;;;7.67;6.67;;;;;23.26;65.66;99987.63;6313337;20;2746197;-54
2023/07/07 06:50:52;;;;;;;;;7.00;7.00;;;;;23.27;64.49;99992.94;6313405;20;2754451;-49
2023/07/07 06:53:21;;;;;;;;;10.33;9.00;;;;;23.43;63.69;99994.84;6301932;20;2772156;-50
2023/07/07 06:55:50;;;;;;;;;8.00;8.00;;;;;23.35;64.08;99995.69;6331473;20;2744133;-49
2023/07/07 06:58:21;;;;;;;;;9.33;7.67;;;;;23.45;64.36;100001.84;6270102;20;3472274;-53
2023/07/07 07:00:49;;;;;;;;;9.00;9.00;;;;;23.59;62.52;100002.19;6315837;20;2750342;-53
2023/07/07 07:03:17;;;;;;;;;11.00;8.67;;;;;23.85;62.58;100008.41;6317946;20;2754537;-52
2023/07/07 07:05:46;;;;;;;;;8.67;7.00;;;;;24.23;61.85;100011.44;6308763;20;2748342;-49
2023/07/07 07:08:15;;;;;;;;;8.33;8.33;;;;;24.25;60.13;100009.41;6312707;20;2739959;-48
2023/07/07 07:10:43;;;;;;;;;10.00;8.67;;;;;24.19;61.24;100004.59;6311259;20;2769033;-48
2023/07/07 07:13:11;;;;;;;;;11.33;8.33;;;;;23.90;60.96;100009.78;6308759;20;2763891;-50
2023/07/07 07:15:39;;;;;;;;;9.00;8.00;;;;;24.19;59.28;100020.19;6314076;20;2735745;-51
2023/07/07 07:18:11;;;;;;;;;13.00;11.00;;;;;23.85;59.37;100019.38;6312542;20;2791951;-54
2023/07/07 07:20:40;;;;;;;;;8.00;8.00;;;;;24.93;57.40;100020.81;6316655;20;2740085;-53
2023/07/07 07:23:08;;;;;;;;;11.33;8.67;;;;;25.21;55.05;100020.38;6308171;20;2770294;-54
2023/07/07 07:25:37;;;;;;;;;8.00;8.00;;;;;24.76;56.04;100031.03;6320040;20;2753498;-49
2023/07/07 07:28:05;;;;;;;;;7.67;7.67;;;;;26.21;53.40;100034.03;6317367;20;2751451;-50
2023/07/07 07:30:33;;;;;;;;;9.00;9.00;;;;;26.28;49.79;100037.75;6309643;20;2741981;-49
2023/07/07 07:33:06;;;;;;;;;7.67;7.67;;;;;26.53;49.22;100034.75;6315488;20;2752402;-52
2023/07/07 07:35:35;;;;;;;;;8.00;8.00;;;;;26.50;49.45;100035.97;6307603;20;2738812;-50
2023/07/07 07:38:04;;;;;;;;;2.80;2.00;;;;;27.27;48.34;100034.69;6332496;20;2730232;-54
2023/07/07 07:40:32;;;;;;;;;6.67;6.67;;;;;27.81;46.63;100036.16;6314420;20;2736886;-52
2023/07/07 07:43:01;;;;;;;;;7.00;6.00;;;;;27.85;44.96;100043.81;6304053;20;2736835;-48
2023/07/07 07:45:30;;;;;;;;;7.33;7.33;;;;;27.35;46.12;100034.56;6309297;20;2756700;-50
2023/07/07 07:47:58;;;;;;;;;9.33;9.00;;;;;28.06;45.50;100045.69;6310732;20;2761810;-54
2023/07/07 07:50:28;;;;;;;;;10.67;7.00;;;;;28.16;44.88;100045.34;6309761;20;2757654;-52
2023/07/07 07:52:57;;;;;;;;;9.67;7.33;;;;;27.73;45.15;100049.00;6312675;20;2761851;-55
2023/07/07 07:55:26;;;;;;;;;7.00;7.00;;;;;27.51;45.92;100047.25;6310553;20;2735709;-51
2023/07/07 07:57:55;;;;;;;;;7.00;6.00;;;;;27.70;44.47;100046.63;6314521;20;2731588;-54
2023/07/07 08:00:23;;;;;;;;;6.67;6.33;;;;;27.15;43.90;100048.13;6305070;20;2733913;-49
2023/07/07 08:02:51;;;;;;;;;8.67;7.67;;;;;27.68;44.81;100048.72;6314834;20;2750394;-53
2023/07/07 08:05:20;;;;;;;;;8.00;7.00;;;;;27.19;44.66;100048.59;6306464;20;2752487;-55
2023/07/07 08:07:47;;;;;;;;;8.00;7.00;;;;;27.44;44.82;100047.19;6306335;20;2749276;-50
2023/07/07 08:10:16;;;;;;;;;10.00;8.00;;;;;26.53;44.81;100048.53;6307052;20;3484796;-54
2023/07/07 08:12:45;;;;;;;;;8.00;7.00;;;;;26.86;44.72;100044.34;6309594;20;2746112;-49
2023/07/07 08:15:13;;;;;;;;;6.33;6.33;;;;;27.19;43.92;100054.97;6311158;20;2732575;-52
2023/07/07 08:17:41;;;;;;;;;7.33;7.33;;;;;27.47;44.01;100051.47;6306815;20;2755407;-53
2023/07/07 08:20:19;;;;;;;;;52.33;43.00;;;;;27.07;42.86;100057.34;6312116;20;3605511;-53
2023/07/07 08:22:48;;;;;;;;;44.75;38.50;;;;;27.36;43.45;100052.84;6278930;20;3593078;-53
2023/07/07 08:25:15;;;;;;;;;131.00;120.50;;;;;28.28;42.85;100062.22;6264001;20;3723325;-54
2023/07/07 08:27:43;;;;;;;;;8.00;8.00;;;;;27.42;41.78;100060.34;6271183;20;3467978;-47
2023/07/07 08:30:31;;;;;;;;;10.67;10.67;;;;;27.35;43.30;100063.00;6303738;20;3515889;-51
2023/07/07 08:33:00;;;;;;;;;31.00;29.33;;;;;27.67;43.21;100058.03;6301612;20;3590946;-52
2023/07/07 08:35:29;;;;;;;;;14.00;13.00;;;;;27.89;42.48;100064.47;6277166;20;2792088;-55
2023/07/07 08:37:57;;;;;;;;;9.00;9.00;;;;;27.33;42.86;100050.44;6283237;20;2753504;-50
2023/07/07 08:40:35;;;;;;;;;14.00;12.00;;;;;27.85;43.25;100054.00;6308118;20;2784749;-52
2023/07/07 08:43:03;;;;;;;;;9.00;9.00;;;;;28.80;42.73;100069.19;6305413;20;2739952;-47
2023/07/07 08:45:31;;;;;;;;;11.33;11.33;;;;;28.53;40.77;100073.72;6307572;20;2484062;-49
2023/07/07 08:48:27;;;;;;;;;7.00;7.00;;;;;28.24;40.82;100070.06;6304091;20;3455617;-47
2023/07/07 08:51:03;;;;;;;;;6.67;6.67;;;;;27.63;41.61;100056.72;6313886;20;2748217;-49
2023/07/07 08:53:50;;;;;;;;;8.00;8.00;;;;;27.86;41.00;100070.38;6310266;20;2749266;-50
2023/07/07 08:57:07;;;;;;;;;6.67;5.67;;;;;28.05;41.80;100066.09;6314347;20;2750278;-51
2023/07/07 09:00:42;;;;;;;;;7.00;7.00;;;;;28.75;41.99;100077.25;6309610;20;2751363;-49
2023/07/07 09:03:40;;;;;;;;;8.00;7.00;;;;;28.77;40.23;100081.50;6304125;20;2750475;-55
2023/07/07 09:06:22;;;;;;;;;7.33;6.00;;;;;28.58;40.19;100083.09;6309387;20;2739899;-49
2023/07/07 09:09:03;;;;;;;;;10.00;9.00;;;;;28.72;40.20;100083.19;6307034;20;2766039;-53
2023/07/07 09:12:06;;;;;;;;;9.00;7.67;;;;;28.32;40.38;100078.19;6307407;20;2753412;-50
2023/07/07 09:14:35;;;;;;;;;8.33;7.00;;;;;28.89;38.75;100084.56;6314796;20;2744169;-52
2023/07/07 09:17:17;;;;;;;;;6.33;6.33;;;;;27.43;41.34;100077.72;6308392;20;2746195;-49
2023/07/07 09:19:48;;;;;;;;;6.00;5.00;;;;;27.86;41.61;100094.34;6303812;20;2729436;-53
2023/07/07 09:22:37;;;;;;;;;6.00;6.00;;;;;28.27;40.19;100088.13;6308189;20;2733182;-48
2023/07/07 09:25:21;;;;;;;;;8.67;7.00;;;;;28.33;39.14;100095.63;6309030;20;2766998;-52
2023/07/07 09:28:01;;;;;;;;;6.33;6.33;;;;;27.65;40.33;100089.63;6313305;20;2746151;-54
2023/07/07 09:31:05;;;;;;;;;9.00;7.67;;;;;27.38;41.24;100096.75;6304235;20;2752403;-52
2023/07/07 09:33:33;;;;;;;;;9.33;8.00;;;;;28.06;39.79;100092.63;6313650;20;2750282;-55
2023/07/07 09:36:32;;;;;;;;;8.00;8.00;;;;;28.34;40.90;100092.66;6310128;20;2502395;-53
2023/07/07 09:39:38;;;;;;;;;8.33;7.33;;;;;28.00;38.75;100090.66;6305817;20;2756680;-54
2023/07/07 09:42:37;;;;;;;;;10.00;7.33;;;;;27.75;41.53;100087.41;6301632;20;2772176;-54
2023/07/07 09:45:25;;;;;;;;;8.67;8.67;;;;;27.88;40.09;100087.56;6317716;20;2748217;-52
2023/07/07 09:48:12;;;;;;;;;8.00;8.00;;;;;28.02;39.20;100091.34;6303966;20;2742066;-51
2023/07/07 09:51:06;;;;;;;;;7.67;7.00;;;;;28.65;39.39;100094.22;6314764;20;2750319;-48
2023/07/07 09:53:38;;;;;;;;;8.00;7.00;;;;;28.54;38.37;100095.63;6304823;20;2744088;-50
2023/07/07 09:56:20;;;;;;;;;9.00;7.00;;;;;28.22;40.25;100105.31;6306635;20;2709775;-52
2023/07/07 09:59:07;;;;;;;;;11.00;9.33;;;;;28.19;40.53;100095.50;6304632;20;2777381;-51
2023/07/07 10:01:38;;;;;;;;;7.33;7.33;;;;;28.09;40.28;100089.47;6301633;20;2748743;-49
2023/07/07 10:04:15;;;;;;;;;9.00;7.33;;;;;28.79;39.94;100092.38;6304212;20;2745489;-53
2023/07/07 10:07:07;;;;;;;;;7.00;7.00;;;;;28.25;40.12;100093.84;6308145;20;2740925;-52
2023/07/07 10:09:35;;;;;;;;;7.33;7.33;;;;;28.33;39.13;100081.81;6305134;20;2742073;-52
2023/07/07 10:12:03;;;;;;;;;6.33;6.33;;;;;28.27;38.60;100088.13;6306928;20;2748695;-53
2023/07/07 10:14:35;;;;;;;;;7.00;7.00;;;;;28.27;40.33;100086.22;6307307;20;2741958;-52
2023/07/07 10:17:09;;;;;;;;;8.00;7.33;;;;;27.92;38.79;100090.81;6299876;20;3469140;-51
2023/07/07 10:19:51;;;;;;;;;8.00;6.00;;;;;28.24;40.32;100084.72;6308248;20;2746191;-50
2023/07/07 10:22:22;;;;;;;;;8.00;7.00;;;;;28.56;39.71;100087.13;6303220;20;2746137;-51
2023/07/07 10:24:50;;;;;;;;;7.00;7.00;;;;;28.19;38.08;100092.75;6306557;20;2741998;-52
2023/07/07 10:27:24;;;;;;;;;7.67;4.67;;;;;28.72;39.79;100088.72;6305494;20;2731552;-47
2023/07/07 10:29:59;;;;;;;;;9.00;8.67;;;;;28.71;38.60;100089.78;6301767;20;2748240;-51
2023/07/07 10:32:27;;;;;;;;;9.00;7.67;;;;;28.18;38.29;100093.81;6310086;20;2755610;-55
2023/07/07 10:35:02;;;;;;;;;6.67;5.00;;;;;28.34;39.18;100091.81;6308110;20;2743078;-51
2023/07/07 10:37:37;;;;;;;;;7.33;7.33;;;;;28.46;39.34;100087.47;6318968;20;2741941;-56
2023/07/07 10:40:12;;;;;;;;;6.00;6.00;;;;;28.26;38.29;100081.78;6313810;20;2734725;-51
2023/07/07 10:42:41;;;;;;;;;9.00;8.00;;;;;27.67;39.71;100080.09;6309878;20;2754494;-50
2023/07/07 10:45:11;;;;;;;;;7.00;7.00;;;;;27.98;39.25;100081.72;6313120;20;2748219;-55
2023/07/07 10:47:39;;;;;;;;;6.67;5.67;;;;;28.27;38.92;100090.91;6317850;20;2739963;-49
2023/07/07 10:50:18;;;;;;;;;8.00;8.00;;;;;28.40;38.20;100085.47;6311089;20;2740312;-51
2023/07/07 10:53:21;;;;;;;;;10.00;7.33;;;;;28.14;38.32;100075.91;6312206;20;2757590;-53
2023/07/07 10:55:56;;;;;;;;;10.00;7.00;;;;;28.24;39.05;100081.09;6316376;20;2768138;-52
2023/07/07 10:58:51;;;;;;;;;10.33;7.00;;;;;29.09;37.61;100076.38;6309415;20;3481540;-50
2023/07/07 11:01:28;;;;;;;;;10.33;6.33;;;;;28.65;37.79;100083.16;6312245;20;2759489;-51
2023/07/07 11:04:07;;;;;;;;;8.67;7.00;;;;;28.58;35.92;100072.03;6310148;20;2750286;-49
2023/07/07 11:07:05;;;;;;;;;6.33;6.33;;;;;28.83;36.67;100068.78;6311035;20;2739905;-48
2023/07/07 11:09:49;;;;;;;;;8.33;8.00;;;;;28.60;37.76;100063.56;6309559;20;2748225;-51
2023/07/07 11:12:41;;;;;;;;;9.33;6.67;;;;;28.79;38.47;100061.97;6308583;20;2736803;-51
2023/07/07 11:16:05;;;;;;;;;5.67;4.33;;;;;28.02;37.52;100060.97;6309744;20;2745856;-54
2023/07/07 11:19:14;;;;;;;;;10.67;10.67;;;;;28.55;38.09;100072.44;6305780;20;3515979;-50
2023/07/07 11:22:08;;;;;;;;;8.00;8.00;;;;;28.67;35.60;100068.09;6277043;20;2741037;-52
2023/07/07 11:24:54;;;;;;;;;11.00;11.00;;;;;27.61;38.59;100052.47;6309745;20;2487777;-53
2023/07/07 11:28:04;;;;;;;;;14.00;12.67;;;;;27.53;39.69;100058.97;6307588;20;3527714;-53
2023/07/07 11:31:14;;;;;;;;;8.00;8.00;;;;;28.40;40.00;100055.09;6282621;20;2744076;-51
2023/07/07 11:34:16;;;;;;;;;11.00;9.00;;;;;27.21;40.59;100052.88;6310891;20;2778555;-51
2023/07/07 11:37:17;;;;;;;;;7.00;7.00;;;;;28.13;40.25;100057.66;6311234;20;2733645;-53